Pagrindinis puslapis
METAR-TAF:

METAR-TAF

Oro uostai :

Konija, Turkija

platuma: 37-58N, ilguma: 032-33E, Aukštis: 1032 m

Dabartinis oras

Ataskaita buvo paskelbta 57 minutes, ne 05:50 UTC
Vėjas 2 kt nuo kintamojo kryptimis
Temperatūra 18°C
Drėgmė 32%
Slėgis 1016 hPa
Matomumas 10 km arba daugiau
nėra debesų žemiau 1500 m ir nėra kamuolinių lietaus debesų

METAR: LTAN 140550Z VRB02KT CAVOK 18/01 Q1016 NOSIG

Laikas: 09:47 (06:47 UTC)

Prognozė

Ataskaita buvo paskelbta 2 valandos ir 7 minutes, ne 04:40 UTC
Prognozė galioja nuo 14 metu 06 UTC su 14 metu 15 UTC
Vėjas 2 kt nuo kintamojo kryptimis
Matomumas 10 km arba daugiau
nėra debesų žemiau 1500 m ir nėra kamuolinių lietaus debesų
Tapsmas
nuo 14 metu 09 UTC su 14 metu 12 UTC
Vėjas 12 kt iš Pietvakarių

TAF: LTAN 140440Z 1406/1415 VRB02KT CAVOK BECMG 1409/1412 23012KT

Orai ataskaitas ir orų prognozės (METAR, TAF).

turimą stotys yra geltonos ir raudonos taškus žemėlapyje.

Perkelti pele per norėdami pamatyti stoties vardą.

Tada spustelėkite, norėdami matyti oro stebėjimo ir prognozės.

Norėdami pakeisti žemėlapį: spustelėkite ant žalios mygtukų su juodo kryžiaus žemyn,; žalią mygtuką su brūkšneliu, jei norite nutolinti; arba žalių rodyklių gretimoms žemėlapius.


METAR-TAF: